createdAt,value
2023-01-03T00:04:50.244Z,12.4
2023-01-03T00:10:26.443Z,12.3
2023-01-03T00:16:01.903Z,12.4
2023-01-03T00:21:37.827Z,12.4
2023-01-03T00:27:29.154Z,12.4
2023-01-03T00:33:52.336Z,12.3
2023-01-03T00:39:27.564Z,12.3
2023-01-03T00:45:03.791Z,12.3
2023-01-03T00:50:39.695Z,12.3
2023-01-03T00:56:27.585Z,12.3
2023-01-03T01:02:08.756Z,12.3
2023-01-03T01:08:02.966Z,12.4
2023-01-03T01:13:58.523Z,12.3
2023-01-03T01:19:33.297Z,12.3
2023-01-03T01:25:18.400Z,12.3
2023-01-03T01:31:00.941Z,12.3
2023-01-03T01:36:37.336Z,12.3
2023-01-03T01:42:18.502Z,12.3
2023-01-03T01:48:27.702Z,12.3
2023-01-03T01:54:00.341Z,12.3
2023-01-03T01:59:38.672Z,12.3
2023-01-03T02:05:14.166Z,12.3
2023-01-03T02:10:50.307Z,12.3
2023-01-03T02:16:35.887Z,12.3
2023-01-03T02:22:15.816Z,12.3
2023-01-03T02:27:53.130Z,12.3
2023-01-03T02:33:42.251Z,12.2
2023-01-03T02:39:29.447Z,12.2
2023-01-03T02:45:05.632Z,12.2
2023-01-03T02:51:23.070Z,12.2
2023-01-03T02:57:03.264Z,12.2
2023-01-03T03:02:59.872Z,12.2
2023-01-03T03:08:37.369Z,12.2
2023-01-03T03:14:21.916Z,12.2
2023-01-03T03:20:00.662Z,12.2
2023-01-03T03:25:42.127Z,12.2
2023-01-03T03:31:18.461Z,12.2
2023-01-03T03:37:02.085Z,12.2
2023-01-03T03:43:26.059Z,12.2
2023-01-03T03:49:23.444Z,12.2
2023-01-03T03:54:56.711Z,12.2
2023-01-03T04:00:33.152Z,12.1
2023-01-03T04:06:08.714Z,12.1
2023-01-03T04:11:48.547Z,12.1
2023-01-03T04:17:24.402Z,12.1
2023-01-03T04:23:00.049Z,12.1
2023-01-03T04:28:38.568Z,12.1
2023-01-03T04:34:16.492Z,12.1
2023-01-03T04:39:54.083Z,12.1
2023-01-03T04:45:33.242Z,12.1
2023-01-03T04:51:17.040Z,12.1
2023-01-03T04:57:00.345Z,12.1
2023-01-03T05:02:52.083Z,12.1
2023-01-03T05:08:27.827Z,12.1
2023-01-03T05:14:04.409Z,12.1
2023-01-03T05:19:50.126Z,12.1
2023-01-03T05:25:25.982Z,12.1
2023-01-03T05:31:46.180Z,12.1
2023-01-03T05:37:22.412Z,12.1
2023-01-03T05:42:59.101Z,12.1
2023-01-03T05:48:56.076Z,12.1
2023-01-03T05:54:28.910Z,12
2023-01-03T06:00:13.884Z,12
2023-01-03T06:05:50.704Z,12
2023-01-03T06:11:29.692Z,12
2023-01-03T06:17:16.309Z,12
2023-01-03T06:23:05.446Z,12
2023-01-03T06:28:40.351Z,12
2023-01-03T06:34:39.589Z,12
2023-01-03T06:40:45.989Z,12
2023-01-03T06:46:42.758Z,12.1
2023-01-03T06:52:16.932Z,12
2023-01-03T06:57:52.761Z,12
2023-01-03T07:03:27.891Z,12
2023-01-03T07:09:03.499Z,12
2023-01-03T07:14:45.115Z,12
2023-01-03T07:20:21.083Z,12
2023-01-03T07:26:11.443Z,10.8
2023-01-03T07:32:11.606Z,10.5
2023-01-03T07:38:01.106Z,10.3
2023-01-03T07:44:02.424Z,10.3
2023-01-03T07:50:01.152Z,10.2
2023-01-03T07:55:35.411Z,10.2
2023-01-03T08:01:20.332Z,10.2
2023-01-03T08:06:57.548Z,10.2
2023-01-03T08:12:53.308Z,10
2023-01-03T08:18:37.378Z,10
2023-01-03T08:24:14.925Z,9.9
2023-01-03T08:29:50.952Z,9.6
2023-01-03T08:35:26.467Z,9.5
2023-01-03T08:41:01.705Z,9.4
2023-01-03T08:46:39.022Z,9.4
2023-01-03T08:52:16.136Z,9.5
2023-01-03T08:58:20.806Z,9.7
2023-01-03T09:04:12.399Z,10.2
2023-01-03T09:10:33.866Z,10.5
2023-01-03T09:16:16.686Z,10.9
2023-01-03T09:21:53.848Z,11.1
2023-01-03T09:27:29.270Z,11
2023-01-03T09:33:04.599Z,10.7
2023-01-03T09:38:39.821Z,10.5
2023-01-03T09:44:16.437Z,10.5
2023-01-03T09:50:29.304Z,10.2
2023-01-03T09:57:06.949Z,10.1
2023-01-03T10:02:42.639Z,10.6
2023-01-03T10:08:59.616Z,11.2
2023-01-03T10:14:40.367Z,12.1
2023-01-03T10:20:27.675Z,12.5
2023-01-03T10:26:20.196Z,12.6
2023-01-03T10:32:38.596Z,12.4
2023-01-03T10:38:27.080Z,12.6
2023-01-03T10:44:16.899Z,12.8
2023-01-03T10:50:00.980Z,13.1
2023-01-03T10:55:36.722Z,13.2
2023-01-03T11:01:33.118Z,13.4
2023-01-03T11:07:10.814Z,13.5
2023-01-03T11:12:55.087Z,13.4
2023-01-03T11:18:36.999Z,12.7
2023-01-03T11:24:20.727Z,13.1
2023-01-03T11:30:00.855Z,12.7
2023-01-03T11:35:43.996Z,12.1
2023-01-03T11:41:19.264Z,13.1
2023-01-03T11:47:26.047Z,14.2
2023-01-03T11:52:59.162Z,14.9
2023-01-03T11:58:36.355Z,15.3
2023-01-03T12:04:11.986Z,15.3
2023-01-03T12:09:48.935Z,15.7
2023-01-03T12:16:00.871Z,16.4
2023-01-03T12:21:36.902Z,16.6
2023-01-03T12:27:12.269Z,16.5
2023-01-03T12:32:53.790Z,16.6
2023-01-03T12:38:38.757Z,15.5
2023-01-03T12:44:37.619Z,15.1
2023-01-03T12:50:12.779Z,15
2023-01-03T12:56:13.735Z,14.9
2023-01-03T13:01:49.056Z,16.9
2023-01-03T13:07:38.138Z,18.4
2023-01-03T13:14:05.284Z,19.5
2023-01-03T13:19:44.347Z,18.3
2023-01-03T13:25:22.525Z,17.4
2023-01-03T13:30:58.488Z,16.1
2023-01-03T13:36:37.505Z,15.3
2023-01-03T13:42:23.889Z,14.8
2023-01-03T13:48:20.697Z,14.6
2023-01-03T13:53:53.633Z,15
2023-01-03T14:00:14.901Z,15.2
2023-01-03T14:05:58.843Z,15.2
2023-01-03T14:11:34.100Z,15.1
2023-01-03T14:17:09.727Z,15.3
2023-01-03T14:22:46.244Z,15.2
2023-01-03T14:28:34.803Z,15.4
2023-01-03T14:34:09.998Z,15.4
2023-01-03T14:39:45.643Z,15.2
2023-01-03T14:45:20.984Z,15
2023-01-03T14:50:55.857Z,14.8
2023-01-03T14:56:31.488Z,14.5
2023-01-03T15:02:06.987Z,14.3
2023-01-03T15:07:44.245Z,14
2023-01-03T15:13:20.292Z,13.8
2023-01-03T15:18:55.768Z,13.4
2023-01-03T15:24:31.268Z,12.9
2023-01-03T15:30:18.818Z,12.6
2023-01-03T15:35:54.078Z,12.6
2023-01-03T15:41:29.025Z,12.3
2023-01-03T15:47:26.532Z,11.9
2023-01-03T15:53:00.630Z,11.7
2023-01-03T15:58:35.911Z,11.7
2023-01-03T16:04:13.102Z,11.6
2023-01-03T16:09:48.070Z,11.4
2023-01-03T16:15:24.267Z,11.2
2023-01-03T16:20:59.815Z,11.2
2023-01-03T16:26:34.863Z,10.9
2023-01-03T16:32:10.438Z,10.6
2023-01-03T16:37:46.587Z,10.6
2023-01-03T16:43:22.279Z,10.5
2023-01-03T16:49:19.328Z,10.4
2023-01-03T16:54:51.780Z,10.2
2023-01-03T17:00:37.439Z,10
2023-01-03T17:06:16.221Z,10
2023-01-03T17:11:56.812Z,9.8
2023-01-03T17:17:35.761Z,9.7
2023-01-03T17:23:33.458Z,9.6
2023-01-03T17:29:10.349Z,9.4
2023-01-03T17:34:47.203Z,9.4
2023-01-03T17:40:25.387Z,9.2
2023-01-03T17:46:10.788Z,9.2
2023-01-03T17:51:58.654Z,9
2023-01-03T17:57:47.640Z,9.4
2023-01-03T18:03:22.987Z,10.2
2023-01-03T18:08:59.050Z,10.5
2023-01-03T18:14:33.995Z,10.6
2023-01-03T18:20:09.103Z,10.7
2023-01-03T18:25:44.334Z,10.7
2023-01-03T18:31:19.773Z,10.7
2023-01-03T18:36:56.205Z,10.7
2023-01-03T18:42:31.492Z,10.7
2023-01-03T18:48:06.877Z,10.7
2023-01-03T18:53:42.548Z,10.7
2023-01-03T18:59:17.509Z,10.7
2023-01-03T19:04:52.780Z,10.7
2023-01-03T19:10:30.551Z,10.7
2023-01-03T19:16:06.072Z,10.6
2023-01-03T19:21:42.173Z,10.6
2023-01-03T19:27:17.562Z,10.6
2023-01-03T19:32:52.727Z,10.6
2023-01-03T19:38:49.877Z,10.6
2023-01-03T19:44:25.525Z,10.6
2023-01-03T19:50:03.838Z,10.5
2023-01-03T19:55:48.021Z,10.5
2023-01-03T20:01:24.903Z,10.4
2023-01-03T20:07:02.973Z,10.3
2023-01-03T20:12:39.120Z,10.3
2023-01-03T20:18:14.556Z,10.3
2023-01-03T20:23:52.038Z,10.3
2023-01-03T20:29:29.435Z,10.3
2023-01-03T20:35:26.974Z,10.4
2023-01-03T20:42:03.410Z,10.3
2023-01-03T20:47:39.780Z,10.2
2023-01-03T20:53:14.769Z,10.1
2023-01-03T20:58:49.735Z,10
2023-01-03T21:04:25.251Z,9.9
2023-01-03T21:10:00.542Z,9.9
2023-01-03T21:15:35.599Z,9.9
2023-01-03T21:21:11.056Z,9.8
2023-01-03T21:26:46.288Z,9.9
2023-01-03T21:32:22.647Z,9.8
2023-01-03T21:37:58.694Z,9.8
2023-01-03T21:43:33.845Z,9.7
2023-01-03T21:49:09.031Z,9.6
2023-01-03T21:54:44.358Z,9.6
2023-01-03T22:00:21.166Z,9.5
2023-01-03T22:05:56.011Z,9.5
2023-01-03T22:11:31.079Z,9.5
2023-01-03T22:17:06.484Z,9.4
2023-01-03T22:22:41.663Z,9.4
2023-01-03T22:28:16.625Z,9.3
2023-01-03T22:33:55.309Z,9.3
2023-01-03T22:39:31.575Z,9.3
2023-01-03T22:45:06.761Z,9.3
2023-01-03T22:50:41.825Z,9.2
2023-01-03T22:56:17.691Z,9.2
2023-01-03T23:01:54.159Z,9.2
2023-01-03T23:07:31.993Z,9.1
2023-01-03T23:13:06.876Z,9.1
2023-01-03T23:18:42.118Z,9.1
2023-01-03T23:24:17.936Z,9.1
2023-01-03T23:29:53.404Z,9
2023-01-03T23:35:28.375Z,9
2023-01-03T23:41:04.776Z,9
2023-01-03T23:47:03.809Z,9.1
2023-01-03T23:52:45.540Z,9.1
2023-01-03T23:58:21.604Z,9.1
